sensor_id;sensor_type;location;lat;lon;timestamp;P1;durP1;ratioP1;P2;durP2;ratioP2
38465;SDS011;24244;51.950;5.902;2023-03-23T00:01:28;4.15;;;1.33;;
38465;SDS011;24244;51.950;5.902;2023-03-23T00:03:56;3.55;;;1.10;;
38465;SDS011;24244;51.950;5.902;2023-03-23T00:06:25;3.78;;;1.55;;
38465;SDS011;24244;51.950;5.902;2023-03-23T00:08:54;2.72;;;1.50;;
38465;SDS011;24244;51.950;5.902;2023-03-23T00:11:25;3.67;;;1.50;;
38465;SDS011;24244;51.950;5.902;2023-03-23T00:13:59;4.95;;;1.92;;
38465;SDS011;24244;51.950;5.902;2023-03-23T00:16:28;3.60;;;1.95;;
38465;SDS011;24244;51.950;5.902;2023-03-23T00:19:05;3.13;;;1.90;;
38465;SDS011;24244;51.950;5.902;2023-03-23T00:21:42;3.63;;;1.50;;
38465;SDS011;24244;51.950;5.902;2023-03-23T00:27:03;3.65;;;1.73;;
38465;SDS011;24244;51.950;5.902;2023-03-23T00:29:40;3.38;;;1.20;;
38465;SDS011;24244;51.950;5.902;2023-03-23T00:32:14;2.67;;;1.55;;
38465;SDS011;24244;51.950;5.902;2023-03-23T00:34:41;2.85;;;1.40;;
38465;SDS011;24244;51.950;5.902;2023-03-23T00:37:09;2.05;;;1.15;;
38465;SDS011;24244;51.950;5.902;2023-03-23T00:39:38;3.13;;;1.45;;
38465;SDS011;24244;51.950;5.902;2023-03-23T00:42:12;2.20;;;1.40;;
38465;SDS011;24244;51.950;5.902;2023-03-23T00:44:39;4.70;;;1.40;;
38465;SDS011;24244;51.950;5.902;2023-03-23T00:47:05;3.83;;;1.50;;
38465;SDS011;24244;51.950;5.902;2023-03-23T00:49:34;3.50;;;1.60;;
38465;SDS011;24244;51.950;5.902;2023-03-23T00:52:02;3.47;;;1.58;;
38465;SDS011;24244;51.950;5.902;2023-03-23T00:54:30;4.13;;;1.52;;
38465;SDS011;24244;51.950;5.902;2023-03-23T00:56:58;3.38;;;1.27;;
38465;SDS011;24244;51.950;5.902;2023-03-23T00:59:26;2.78;;;1.50;;
38465;SDS011;24244;51.950;5.902;2023-03-23T01:01:53;3.67;;;1.30;;
38465;SDS011;24244;51.950;5.902;2023-03-23T01:04:19;4.18;;;1.30;;
38465;SDS011;24244;51.950;5.902;2023-03-23T01:06:48;3.30;;;1.90;;
38465;SDS011;24244;51.950;5.902;2023-03-23T01:09:16;1.90;;;0.95;;
38465;SDS011;24244;51.950;5.902;2023-03-23T01:11:47;2.60;;;1.42;;
38465;SDS011;24244;51.950;5.902;2023-03-23T01:14:17;2.78;;;1.45;;
38465;SDS011;24244;51.950;5.902;2023-03-23T01:16:45;3.10;;;1.30;;
38465;SDS011;24244;51.950;5.902;2023-03-23T01:19:12;3.65;;;1.65;;
38465;SDS011;24244;51.950;5.902;2023-03-23T01:21:38;3.38;;;1.23;;
38465;SDS011;24244;51.950;5.902;2023-03-23T01:24:04;5.05;;;1.90;;
38465;SDS011;24244;51.950;5.902;2023-03-23T01:26:34;3.10;;;1.35;;
38465;SDS011;24244;51.950;5.902;2023-03-23T01:29:00;2.85;;;1.23;;
38465;SDS011;24244;51.950;5.902;2023-03-23T01:31:28;2.83;;;1.50;;
38465;SDS011;24244;51.950;5.902;2023-03-23T01:33:55;3.20;;;1.50;;
38465;SDS011;24244;51.950;5.902;2023-03-23T01:36:23;3.00;;;1.60;;
38465;SDS011;24244;51.950;5.902;2023-03-23T01:38:56;3.22;;;2.03;;
38465;SDS011;24244;51.950;5.902;2023-03-23T01:41:24;3.92;;;1.70;;
38465;SDS011;24244;51.950;5.902;2023-03-23T01:43:57;2.92;;;1.30;;
38465;SDS011;24244;51.950;5.902;2023-03-23T01:47:09;2.60;;;1.60;;
38465;SDS011;24244;51.950;5.902;2023-03-23T01:49:36;3.40;;;1.48;;
38465;SDS011;24244;51.950;5.902;2023-03-23T01:54:43;3.17;;;1.65;;
38465;SDS011;24244;51.950;5.902;2023-03-23T01:57:12;3.13;;;1.65;;
38465;SDS011;24244;51.950;5.902;2023-03-23T01:59:42;3.10;;;1.10;;
38465;SDS011;24244;51.950;5.902;2023-03-23T02:02:14;4.15;;;1.35;;
38465;SDS011;24244;51.950;5.902;2023-03-23T02:04:42;3.05;;;1.48;;
38465;SDS011;24244;51.950;5.902;2023-03-23T02:07:16;3.22;;;1.90;;
38465;SDS011;24244;51.950;5.902;2023-03-23T02:09:44;2.78;;;1.27;;
38465;SDS011;24244;51.950;5.902;2023-03-23T02:12:12;3.33;;;1.48;;
38465;SDS011;24244;51.950;5.902;2023-03-23T02:14:39;2.45;;;1.13;;
38465;SDS011;24244;51.950;5.902;2023-03-23T02:17:07;3.00;;;1.80;;
38465;SDS011;24244;51.950;5.902;2023-03-23T02:19:53;3.55;;;1.85;;
38465;SDS011;24244;51.950;5.902;2023-03-23T02:22:38;3.75;;;1.60;;
38465;SDS011;24244;51.950;5.902;2023-03-23T02:28:29;4.03;;;1.85;;
38465;SDS011;24244;51.950;5.902;2023-03-23T02:31:33;3.75;;;2.17;;
38465;SDS011;24244;51.950;5.902;2023-03-23T02:34:25;3.13;;;2.13;;
38465;SDS011;24244;51.950;5.902;2023-03-23T02:36:58;3.35;;;2.08;;
38465;SDS011;24244;51.950;5.902;2023-03-23T02:39:29;2.72;;;1.52;;
38465;SDS011;24244;51.950;5.902;2023-03-23T02:41:58;3.78;;;1.30;;
38465;SDS011;24244;51.950;5.902;2023-03-23T02:44:31;3.38;;;1.90;;
38465;SDS011;24244;51.950;5.902;2023-03-23T02:47:02;2.53;;;1.50;;
38465;SDS011;24244;51.950;5.902;2023-03-23T02:49:34;3.15;;;1.90;;
38465;SDS011;24244;51.950;5.902;2023-03-23T02:52:08;2.90;;;1.90;;
38465;SDS011;24244;51.950;5.902;2023-03-23T02:54:39;3.22;;;1.75;;
38465;SDS011;24244;51.950;5.902;2023-03-23T02:57:07;3.22;;;1.25;;
38465;SDS011;24244;51.950;5.902;2023-03-23T02:59:34;2.90;;;1.60;;
38465;SDS011;24244;51.950;5.902;2023-03-23T03:02:01;3.45;;;1.52;;
38465;SDS011;24244;51.950;5.902;2023-03-23T03:04:33;3.33;;;1.45;;
38465;SDS011;24244;51.950;5.902;2023-03-23T03:07:05;3.80;;;1.70;;
38465;SDS011;24244;51.950;5.902;2023-03-23T03:09:44;4.63;;;1.52;;
38465;SDS011;24244;51.950;5.902;2023-03-23T03:12:17;3.20;;;1.85;;
38465;SDS011;24244;51.950;5.902;2023-03-23T03:14:51;4.47;;;2.10;;
38465;SDS011;24244;51.950;5.902;2023-03-23T03:17:28;3.28;;;1.50;;
38465;SDS011;24244;51.950;5.902;2023-03-23T03:19:59;4.00;;;1.80;;
38465;SDS011;24244;51.950;5.902;2023-03-23T03:22:35;4.03;;;2.00;;
38465;SDS011;24244;51.950;5.902;2023-03-23T03:25:04;3.22;;;1.50;;
38465;SDS011;24244;51.950;5.902;2023-03-23T03:27:32;4.22;;;1.38;;
38465;SDS011;24244;51.950;5.902;2023-03-23T03:30:00;2.83;;;1.30;;
38465;SDS011;24244;51.950;5.902;2023-03-23T03:32:33;3.05;;;1.55;;
38465;SDS011;24244;51.950;5.902;2023-03-23T03:35:09;2.88;;;1.50;;
38465;SDS011;24244;51.950;5.902;2023-03-23T03:37:36;4.82;;;1.50;;
38465;SDS011;24244;51.950;5.902;2023-03-23T03:40:04;2.47;;;1.38;;
38465;SDS011;24244;51.950;5.902;2023-03-23T03:42:36;2.08;;;1.20;;
38465;SDS011;24244;51.950;5.902;2023-03-23T03:45:03;3.80;;;1.75;;
38465;SDS011;24244;51.950;5.902;2023-03-23T03:47:32;4.30;;;1.67;;
38465;SDS011;24244;51.950;5.902;2023-03-23T03:49:58;2.95;;;1.55;;
38465;SDS011;24244;51.950;5.902;2023-03-23T03:52:28;2.90;;;1.05;;
38465;SDS011;24244;51.950;5.902;2023-03-23T03:54:54;3.40;;;1.50;;
38465;SDS011;24244;51.950;5.902;2023-03-23T03:57:24;3.17;;;1.65;;
38465;SDS011;24244;51.950;5.902;2023-03-23T03:59:50;3.22;;;1.77;;
38465;SDS011;24244;51.950;5.902;2023-03-23T04:02:19;2.60;;;1.40;;
38465;SDS011;24244;51.950;5.902;2023-03-23T04:04:47;3.47;;;1.65;;
38465;SDS011;24244;51.950;5.902;2023-03-23T04:07:14;2.78;;;1.50;;
38465;SDS011;24244;51.950;5.902;2023-03-23T04:09:45;3.33;;;1.90;;
38465;SDS011;24244;51.950;5.902;2023-03-23T04:12:12;3.20;;;1.30;;
38465;SDS011;24244;51.950;5.902;2023-03-23T04:14:38;3.08;;;1.70;;
38465;SDS011;24244;51.950;5.902;2023-03-23T04:17:04;3.78;;;1.73;;
38465;SDS011;24244;51.950;5.902;2023-03-23T04:19:32;2.88;;;1.52;;
38465;SDS011;24244;51.950;5.902;2023-03-23T04:21:58;2.95;;;1.17;;
38465;SDS011;24244;51.950;5.902;2023-03-23T04:24:24;2.92;;;1.70;;
38465;SDS011;24244;51.950;5.902;2023-03-23T04:26:54;3.10;;;1.52;;
38465;SDS011;24244;51.950;5.902;2023-03-23T04:29:21;2.50;;;1.40;;
38465;SDS011;24244;51.950;5.902;2023-03-23T04:31:47;3.47;;;1.50;;
38465;SDS011;24244;51.950;5.902;2023-03-23T04:34:19;3.88;;;2.20;;
38465;SDS011;24244;51.950;5.902;2023-03-23T04:39:17;3.85;;;1.63;;
38465;SDS011;24244;51.950;5.902;2023-03-23T04:41:42;3.58;;;1.50;;
38465;SDS011;24244;51.950;5.902;2023-03-23T04:44:10;2.45;;;1.15;;
38465;SDS011;24244;51.950;5.902;2023-03-23T04:46:43;5.20;;;2.75;;
38465;SDS011;24244;51.950;5.902;2023-03-23T04:49:10;2.70;;;1.73;;
38465;SDS011;24244;51.950;5.902;2023-03-23T04:51:36;4.30;;;1.90;;
38465;SDS011;24244;51.950;5.902;2023-03-23T04:54:04;3.40;;;1.85;;
38465;SDS011;24244;51.950;5.902;2023-03-23T04:56:30;3.42;;;1.38;;
38465;SDS011;24244;51.950;5.902;2023-03-23T04:58:56;3.88;;;1.63;;
38465;SDS011;24244;51.950;5.902;2023-03-23T05:01:24;3.53;;;1.38;;
38465;SDS011;24244;51.950;5.902;2023-03-23T05:03:52;2.65;;;1.52;;
38465;SDS011;24244;51.950;5.902;2023-03-23T05:06:19;3.17;;;1.30;;
38465;SDS011;24244;51.950;5.902;2023-03-23T05:08:46;3.47;;;1.10;;
38465;SDS011;24244;51.950;5.902;2023-03-23T05:11:12;3.90;;;1.10;;
38465;SDS011;24244;51.950;5.902;2023-03-23T05:13:38;3.00;;;1.73;;
38465;SDS011;24244;51.950;5.902;2023-03-23T05:16:09;3.72;;;1.00;;
38465;SDS011;24244;51.950;5.902;2023-03-23T05:18:37;3.00;;;1.23;;
38465;SDS011;24244;51.950;5.902;2023-03-23T05:21:08;3.55;;;1.30;;
38465;SDS011;24244;51.950;5.902;2023-03-23T05:23:38;3.63;;;0.80;;
38465;SDS011;24244;51.950;5.902;2023-03-23T05:26:05;4.20;;;1.20;;
38465;SDS011;24244;51.950;5.902;2023-03-23T05:28:32;3.67;;;1.50;;
38465;SDS011;24244;51.950;5.902;2023-03-23T05:30:58;3.92;;;1.02;;
38465;SDS011;24244;51.950;5.902;2023-03-23T05:33:24;2.92;;;1.23;;
38465;SDS011;24244;51.950;5.902;2023-03-23T05:36:00;2.30;;;1.20;;
38465;SDS011;24244;51.950;5.902;2023-03-23T05:38:26;2.13;;;0.73;;
38465;SDS011;24244;51.950;5.902;2023-03-23T05:40:52;4.65;;;0.80;;
38465;SDS011;24244;51.950;5.902;2023-03-23T05:43:18;3.28;;;0.73;;
38465;SDS011;24244;51.950;5.902;2023-03-23T05:45:44;4.13;;;0.90;;
38465;SDS011;24244;51.950;5.902;2023-03-23T05:48:11;2.03;;;0.98;;
38465;SDS011;24244;51.950;5.902;2023-03-23T05:50:37;2.30;;;0.90;;
38465;SDS011;24244;51.950;5.902;2023-03-23T05:53:06;2.38;;;1.00;;
38465;SDS011;24244;51.950;5.902;2023-03-23T05:55:33;2.03;;;0.80;;
38465;SDS011;24244;51.950;5.902;2023-03-23T05:58:00;3.58;;;1.10;;
38465;SDS011;24244;51.950;5.902;2023-03-23T06:00:25;2.92;;;0.50;;
38465;SDS011;24244;51.950;5.902;2023-03-23T06:02:54;3.30;;;1.00;;
38465;SDS011;24244;51.950;5.902;2023-03-23T06:05:22;2.70;;;0.80;;
38465;SDS011;24244;51.950;5.902;2023-03-23T06:07:50;2.33;;;0.50;;
38465;SDS011;24244;51.950;5.902;2023-03-23T06:10:24;4.07;;;0.50;;
38465;SDS011;24244;51.950;5.902;2023-03-23T06:12:51;2.58;;;0.90;;
38465;SDS011;24244;51.950;5.902;2023-03-23T06:15:17;3.33;;;0.60;;
38465;SDS011;24244;51.950;5.902;2023-03-23T06:17:46;3.72;;;0.63;;
38465;SDS011;24244;51.950;5.902;2023-03-23T06:20:22;4.60;;;0.82;;
38465;SDS011;24244;51.950;5.902;2023-03-23T06:22:50;3.20;;;0.63;;
38465;SDS011;24244;51.950;5.902;2023-03-23T06:25:17;2.97;;;1.00;;
38465;SDS011;24244;51.950;5.902;2023-03-23T06:27:48;2.97;;;0.90;;
38465;SDS011;24244;51.950;5.902;2023-03-23T06:30:15;1.65;;;0.30;;
38465;SDS011;24244;51.950;5.902;2023-03-23T06:32:43;1.55;;;0.50;;
38465;SDS011;24244;51.950;5.902;2023-03-23T06:35:15;4.38;;;1.50;;
38465;SDS011;24244;51.950;5.902;2023-03-23T06:37:43;2.45;;;0.43;;
38465;SDS011;24244;51.950;5.902;2023-03-23T06:40:09;1.70;;;0.68;;
38465;SDS011;24244;51.950;5.902;2023-03-23T06:42:35;2.75;;;0.50;;
38465;SDS011;24244;51.950;5.902;2023-03-23T06:45:20;2.20;;;0.45;;
38465;SDS011;24244;51.950;5.902;2023-03-23T06:48:00;2.03;;;0.55;;
38465;SDS011;24244;51.950;5.902;2023-03-23T06:50:28;2.72;;;0.70;;
38465;SDS011;24244;51.950;5.902;2023-03-23T06:53:02;2.38;;;0.57;;
38465;SDS011;24244;51.950;5.902;2023-03-23T06:55:29;2.88;;;0.63;;
38465;SDS011;24244;51.950;5.902;2023-03-23T06:57:56;1.92;;;0.80;;
38465;SDS011;24244;51.950;5.902;2023-03-23T07:00:26;4.32;;;0.70;;
38465;SDS011;24244;51.950;5.902;2023-03-23T07:02:54;2.58;;;0.77;;
38465;SDS011;24244;51.950;5.902;2023-03-23T07:05:21;2.92;;;0.70;;
38465;SDS011;24244;51.950;5.902;2023-03-23T07:07:49;4.30;;;0.90;;
38465;SDS011;24244;51.950;5.902;2023-03-23T07:10:16;5.30;;;1.20;;
38465;SDS011;24244;51.950;5.902;2023-03-23T07:12:42;2.10;;;0.75;;
38465;SDS011;24244;51.950;5.902;2023-03-23T07:15:09;4.60;;;0.85;;
38465;SDS011;24244;51.950;5.902;2023-03-23T07:17:38;5.03;;;0.80;;
38465;SDS011;24244;51.950;5.902;2023-03-23T07:20:16;3.67;;;1.00;;
38465;SDS011;24244;51.950;5.902;2023-03-23T07:22:42;2.92;;;0.82;;
38465;SDS011;24244;51.950;5.902;2023-03-23T07:25:08;3.97;;;0.68;;
38465;SDS011;24244;51.950;5.902;2023-03-23T07:27:34;3.58;;;0.52;;
38465;SDS011;24244;51.950;5.902;2023-03-23T07:30:01;3.00;;;0.70;;
38465;SDS011;24244;51.950;5.902;2023-03-23T07:32:27;1.75;;;0.38;;
38465;SDS011;24244;51.950;5.902;2023-03-23T07:35:01;3.72;;;0.95;;
38465;SDS011;24244;51.950;5.902;2023-03-23T07:37:30;3.67;;;0.80;;
38465;SDS011;24244;51.950;5.902;2023-03-23T07:39:57;2.05;;;0.47;;
38465;SDS011;24244;51.950;5.902;2023-03-23T07:42:36;2.95;;;0.50;;
38465;SDS011;24244;51.950;5.902;2023-03-23T07:45:05;2.42;;;0.70;;
38465;SDS011;24244;51.950;5.902;2023-03-23T07:47:33;2.05;;;0.52;;
38465;SDS011;24244;51.950;5.902;2023-03-23T07:50:03;2.35;;;0.50;;
38465;SDS011;24244;51.950;5.902;2023-03-23T07:52:29;3.33;;;0.77;;
38465;SDS011;24244;51.950;5.902;2023-03-23T07:54:57;1.65;;;0.50;;
38465;SDS011;24244;51.950;5.902;2023-03-23T07:57:26;1.77;;;0.65;;
38465;SDS011;24244;51.950;5.902;2023-03-23T07:59:52;2.85;;;0.80;;
38465;SDS011;24244;51.950;5.902;2023-03-23T08:02:20;1.92;;;0.73;;
38465;SDS011;24244;51.950;5.902;2023-03-23T08:04:46;2.20;;;0.70;;
38465;SDS011;24244;51.950;5.902;2023-03-23T08:07:28;3.17;;;0.70;;
38465;SDS011;24244;51.950;5.902;2023-03-23T08:09:59;1.42;;;0.75;;
38465;SDS011;24244;51.950;5.902;2023-03-23T08:12:25;1.98;;;0.77;;
38465;SDS011;24244;51.950;5.902;2023-03-23T08:14:53;2.85;;;1.10;;
38465;SDS011;24244;51.950;5.902;2023-03-23T08:17:28;3.00;;;0.95;;
38465;SDS011;24244;51.950;5.902;2023-03-23T08:20:04;1.90;;;0.52;;
38465;SDS011;24244;51.950;5.902;2023-03-23T08:22:55;3.33;;;1.05;;
38465;SDS011;24244;51.950;5.902;2023-03-23T08:25:25;5.10;;;1.00;;
38465;SDS011;24244;51.950;5.902;2023-03-23T08:27:53;2.78;;;0.70;;
38465;SDS011;24244;51.950;5.902;2023-03-23T08:30:24;3.90;;;0.85;;
38465;SDS011;24244;51.950;5.902;2023-03-23T08:32:55;4.80;;;0.95;;
38465;SDS011;24244;51.950;5.902;2023-03-23T08:35:23;1.92;;;0.50;;
38465;SDS011;24244;51.950;5.902;2023-03-23T08:37:49;2.53;;;0.43;;
38465;SDS011;24244;51.950;5.902;2023-03-23T08:40:20;2.97;;;0.65;;
38465;SDS011;24244;51.950;5.902;2023-03-23T08:42:53;3.50;;;0.52;;
38465;SDS011;24244;51.950;5.902;2023-03-23T08:45:23;1.60;;;0.93;;
38465;SDS011;24244;51.950;5.902;2023-03-23T08:47:54;4.10;;;0.77;;
38465;SDS011;24244;51.950;5.902;2023-03-23T08:50:27;3.10;;;0.70;;
38465;SDS011;24244;51.950;5.902;2023-03-23T08:53:00;2.42;;;0.82;;
38465;SDS011;24244;51.950;5.902;2023-03-23T08:55:28;3.25;;;1.10;;
38465;SDS011;24244;51.950;5.902;2023-03-23T08:57:57;1.90;;;0.80;;
38465;SDS011;24244;51.950;5.902;2023-03-23T09:00:25;1.10;;;0.40;;
38465;SDS011;24244;51.950;5.902;2023-03-23T09:03:10;2.58;;;0.77;;
38465;SDS011;24244;51.950;5.902;2023-03-23T09:05:36;2.15;;;0.30;;
38465;SDS011;24244;51.950;5.902;2023-03-23T09:08:11;1.70;;;0.60;;
38465;SDS011;24244;51.950;5.902;2023-03-23T09:10:44;1.83;;;0.22;;
38465;SDS011;24244;51.950;5.902;2023-03-23T09:13:12;0.98;;;0.40;;
38465;SDS011;24244;51.950;5.902;2023-03-23T09:15:48;0.95;;;0.20;;
38465;SDS011;24244;51.950;5.902;2023-03-23T09:18:22;3.03;;;0.43;;
38465;SDS011;24244;51.950;5.902;2023-03-23T09:20:50;2.00;;;0.70;;
38465;SDS011;24244;51.950;5.902;2023-03-23T09:23:19;0.80;;;0.20;;
38465;SDS011;24244;51.950;5.902;2023-03-23T09:25:50;1.42;;;0.50;;
38465;SDS011;24244;51.950;5.902;2023-03-23T09:28:19;1.35;;;0.45;;
38465;SDS011;24244;51.950;5.902;2023-03-23T09:30:51;3.55;;;0.43;;
38465;SDS011;24244;51.950;5.902;2023-03-23T09:33:21;2.80;;;0.80;;
38465;SDS011;24244;51.950;5.902;2023-03-23T09:35:59;1.38;;;0.22;;
38465;SDS011;24244;51.950;5.902;2023-03-23T09:38:33;1.90;;;0.20;;
38465;SDS011;24244;51.950;5.902;2023-03-23T09:41:09;2.05;;;0.60;;
38465;SDS011;24244;51.950;5.902;2023-03-23T09:44:06;2.35;;;0.30;;
38465;SDS011;24244;51.950;5.902;2023-03-23T09:46:47;4.72;;;0.43;;
38465;SDS011;24244;51.950;5.902;2023-03-23T09:49:26;2.88;;;0.65;;
38465;SDS011;24244;51.950;5.902;2023-03-23T09:51:56;3.58;;;0.40;;
38465;SDS011;24244;51.950;5.902;2023-03-23T09:54:31;4.25;;;0.40;;
38465;SDS011;24244;51.950;5.902;2023-03-23T09:57:04;2.35;;;0.75;;
38465;SDS011;24244;51.950;5.902;2023-03-23T09:59:44;3.45;;;0.60;;
38465;SDS011;24244;51.950;5.902;2023-03-23T10:02:18;2.65;;;0.80;;
38465;SDS011;24244;51.950;5.902;2023-03-23T10:04:51;2.45;;;0.68;;
38465;SDS011;24244;51.950;5.902;2023-03-23T10:07:23;3.78;;;0.70;;
38465;SDS011;24244;51.950;5.902;2023-03-23T10:09:55;2.03;;;0.57;;
38465;SDS011;24244;51.950;5.902;2023-03-23T10:12:40;3.30;;;0.50;;
38465;SDS011;24244;51.950;5.902;2023-03-23T10:15:26;3.78;;;0.45;;
38465;SDS011;24244;51.950;5.902;2023-03-23T10:17:57;1.45;;;0.32;;
38465;SDS011;24244;51.950;5.902;2023-03-23T10:20:37;3.47;;;0.57;;
38465;SDS011;24244;51.950;5.902;2023-03-23T10:23:33;3.83;;;0.50;;
38465;SDS011;24244;51.950;5.902;2023-03-23T10:26:22;5.63;;;1.17;;
38465;SDS011;24244;51.950;5.902;2023-03-23T10:29:12;3.55;;;1.00;;
38465;SDS011;24244;51.950;5.902;2023-03-23T10:31:50;3.67;;;1.20;;
38465;SDS011;24244;51.950;5.902;2023-03-23T10:34:41;2.38;;;0.80;;
38465;SDS011;24244;51.950;5.902;2023-03-23T10:37:16;2.90;;;0.45;;
38465;SDS011;24244;51.950;5.902;2023-03-23T10:39:48;3.05;;;0.50;;
38465;SDS011;24244;51.950;5.902;2023-03-23T10:42:27;3.83;;;1.23;;
38465;SDS011;24244;51.950;5.902;2023-03-23T10:47:42;6.40;;;0.80;;
38465;SDS011;24244;51.950;5.902;2023-03-23T10:50:28;4.25;;;0.90;;
38465;SDS011;24244;51.950;5.902;2023-03-23T10:53:21;2.13;;;0.60;;
38465;SDS011;24244;51.950;5.902;2023-03-23T10:55:55;3.35;;;0.85;;
38465;SDS011;24244;51.950;5.902;2023-03-23T11:00:58;5.28;;;1.00;;
38465;SDS011;24244;51.950;5.902;2023-03-23T11:03:39;3.55;;;0.80;;
38465;SDS011;24244;51.950;5.902;2023-03-23T11:06:10;2.97;;;0.65;;
38465;SDS011;24244;51.950;5.902;2023-03-23T11:08:47;3.17;;;1.20;;
38465;SDS011;24244;51.950;5.902;2023-03-23T11:11:18;3.33;;;0.65;;
38465;SDS011;24244;51.950;5.902;2023-03-23T11:13:57;2.88;;;0.73;;
38465;SDS011;24244;51.950;5.902;2023-03-23T11:16:29;4.30;;;1.30;;
38465;SDS011;24244;51.950;5.902;2023-03-23T11:19:13;3.92;;;1.15;;
38465;SDS011;24244;51.950;5.902;2023-03-23T11:21:45;4.13;;;0.70;;
38465;SDS011;24244;51.950;5.902;2023-03-23T11:24:21;5.65;;;1.20;;
38465;SDS011;24244;51.950;5.902;2023-03-23T11:26:52;3.85;;;1.13;;
38465;SDS011;24244;51.950;5.902;2023-03-23T11:29:20;2.97;;;1.17;;
38465;SDS011;24244;51.950;5.902;2023-03-23T11:32:05;5.53;;;1.42;;
38465;SDS011;24244;51.950;5.902;2023-03-23T11:34:40;2.33;;;1.00;;
38465;SDS011;24244;51.950;5.902;2023-03-23T11:37:18;3.13;;;1.10;;
38465;SDS011;24244;51.950;5.902;2023-03-23T11:39:57;2.95;;;0.80;;
38465;SDS011;24244;51.950;5.902;2023-03-23T11:42:26;3.45;;;1.00;;
38465;SDS011;24244;51.950;5.902;2023-03-23T11:45:13;4.28;;;1.20;;
38465;SDS011;24244;51.950;5.902;2023-03-23T11:50:44;2.10;;;0.65;;
38465;SDS011;24244;51.950;5.902;2023-03-23T11:56:08;3.85;;;1.45;;
38465;SDS011;24244;51.950;5.902;2023-03-23T11:58:42;4.22;;;1.20;;
38465;SDS011;24244;51.950;5.902;2023-03-23T12:01:12;1.95;;;0.65;;
38465;SDS011;24244;51.950;5.902;2023-03-23T12:04:03;3.40;;;1.05;;
38465;SDS011;24244;51.950;5.902;2023-03-23T12:06:45;4.78;;;1.50;;
38465;SDS011;24244;51.950;5.902;2023-03-23T12:09:24;3.72;;;0.95;;
38465;SDS011;24244;51.950;5.902;2023-03-23T12:12:12;5.45;;;1.45;;
38465;SDS011;24244;51.950;5.902;2023-03-23T12:14:50;2.38;;;1.30;;
38465;SDS011;24244;51.950;5.902;2023-03-23T12:17:35;2.53;;;1.20;;
38465;SDS011;24244;51.950;5.902;2023-03-23T12:20:26;3.35;;;1.15;;
38465;SDS011;24244;51.950;5.902;2023-03-23T12:23:08;3.47;;;1.52;;
38465;SDS011;24244;51.950;5.902;2023-03-23T12:31:58;4.40;;;1.55;;
38465;SDS011;24244;51.950;5.902;2023-03-23T12:34:50;3.22;;;1.10;;
38465;SDS011;24244;51.950;5.902;2023-03-23T12:37:46;4.57;;;1.40;;
38465;SDS011;24244;51.950;5.902;2023-03-23T12:40:32;3.13;;;1.75;;
38465;SDS011;24244;51.950;5.902;2023-03-23T12:43:18;2.30;;;0.85;;
38465;SDS011;24244;51.950;5.902;2023-03-23T12:46:01;2.10;;;1.17;;
38465;SDS011;24244;51.950;5.902;2023-03-23T12:48:46;3.78;;;0.98;;
38465;SDS011;24244;51.950;5.902;2023-03-23T12:51:24;2.55;;;1.10;;
38465;SDS011;24244;51.950;5.902;2023-03-23T12:54:07;4.82;;;1.83;;
38465;SDS011;24244;51.950;5.902;2023-03-23T12:56:41;2.25;;;0.95;;
38465;SDS011;24244;51.950;5.902;2023-03-23T12:59:19;3.35;;;0.70;;
38465;SDS011;24244;51.950;5.902;2023-03-23T13:01:56;3.67;;;0.90;;
38465;SDS011;24244;51.950;5.902;2023-03-23T13:04:29;3.05;;;0.90;;
38465;SDS011;24244;51.950;5.902;2023-03-23T13:07:01;2.35;;;0.90;;
38465;SDS011;24244;51.950;5.902;2023-03-23T13:09:32;4.53;;;1.23;;
38465;SDS011;24244;51.950;5.902;2023-03-23T13:12:04;4.63;;;1.10;;
38465;SDS011;24244;51.950;5.902;2023-03-23T13:14:37;4.97;;;1.00;;
38465;SDS011;24244;51.950;5.902;2023-03-23T13:17:11;2.55;;;0.82;;
38465;SDS011;24244;51.950;5.902;2023-03-23T13:22:42;3.50;;;0.68;;
38465;SDS011;24244;51.950;5.902;2023-03-23T13:25:17;2.33;;;1.10;;
38465;SDS011;24244;51.950;5.902;2023-03-23T13:27:48;2.47;;;0.60;;
38465;SDS011;24244;51.950;5.902;2023-03-23T13:30:21;2.45;;;0.88;;
38465;SDS011;24244;51.950;5.902;2023-03-23T13:32:50;1.83;;;0.57;;
38465;SDS011;24244;51.950;5.902;2023-03-23T13:35:20;1.88;;;0.80;;
38465;SDS011;24244;51.950;5.902;2023-03-23T13:37:47;3.38;;;0.80;;
38465;SDS011;24244;51.950;5.902;2023-03-23T13:40:19;1.45;;;0.32;;
38465;SDS011;24244;51.950;5.902;2023-03-23T13:42:51;2.55;;;0.80;;
38465;SDS011;24244;51.950;5.902;2023-03-23T13:45:20;2.15;;;0.80;;
38465;SDS011;24244;51.950;5.902;2023-03-23T13:47:47;1.13;;;0.45;;
38465;SDS011;24244;51.950;5.902;2023-03-23T13:50:24;2.00;;;0.60;;
38465;SDS011;24244;51.950;5.902;2023-03-23T13:55:21;3.33;;;0.55;;
38465;SDS011;24244;51.950;5.902;2023-03-23T13:57:57;1.63;;;0.52;;
38465;SDS011;24244;51.950;5.902;2023-03-23T14:00:36;1.85;;;0.57;;
38465;SDS011;24244;51.950;5.902;2023-03-23T14:03:12;1.75;;;0.45;;
38465;SDS011;24244;51.950;5.902;2023-03-23T14:05:41;2.90;;;0.70;;
38465;SDS011;24244;51.950;5.902;2023-03-23T14:08:22;2.67;;;0.90;;
38465;SDS011;24244;51.950;5.902;2023-03-23T14:10:52;2.60;;;0.82;;
38465;SDS011;24244;51.950;5.902;2023-03-23T14:13:23;2.50;;;0.90;;
38465;SDS011;24244;51.950;5.902;2023-03-23T14:15:54;3.88;;;0.90;;
38465;SDS011;24244;51.950;5.902;2023-03-23T14:18:23;1.80;;;0.90;;
38465;SDS011;24244;51.950;5.902;2023-03-23T14:20:55;2.13;;;0.80;;
38465;SDS011;24244;51.950;5.902;2023-03-23T14:23:22;2.95;;;0.57;;
38465;SDS011;24244;51.950;5.902;2023-03-23T14:25:56;2.28;;;1.23;;
38465;SDS011;24244;51.950;5.902;2023-03-23T14:28:30;1.88;;;0.75;;
38465;SDS011;24244;51.950;5.902;2023-03-23T14:30:58;2.28;;;0.80;;
38465;SDS011;24244;51.950;5.902;2023-03-23T14:33:24;2.65;;;0.90;;
38465;SDS011;24244;51.950;5.902;2023-03-23T14:35:51;4.57;;;1.40;;
38465;SDS011;24244;51.950;5.902;2023-03-23T14:38:17;3.20;;;0.95;;
38465;SDS011;24244;51.950;5.902;2023-03-23T14:40:45;2.08;;;1.10;;
38465;SDS011;24244;51.950;5.902;2023-03-23T14:43:14;3.13;;;1.40;;
38465;SDS011;24244;51.950;5.902;2023-03-23T14:45:42;3.63;;;1.00;;
38465;SDS011;24244;51.950;5.902;2023-03-23T14:48:10;2.72;;;1.10;;
38465;SDS011;24244;51.950;5.902;2023-03-23T14:50:40;2.13;;;0.77;;
38465;SDS011;24244;51.950;5.902;2023-03-23T14:53:11;2.35;;;0.50;;
38465;SDS011;24244;51.950;5.902;2023-03-23T14:55:41;4.00;;;0.80;;
38465;SDS011;24244;51.950;5.902;2023-03-23T14:58:08;2.35;;;0.85;;
38465;SDS011;24244;51.950;5.902;2023-03-23T15:00:40;2.70;;;0.77;;
38465;SDS011;24244;51.950;5.902;2023-03-23T15:03:11;3.00;;;0.60;;
38465;SDS011;24244;51.950;5.902;2023-03-23T15:05:45;2.22;;;0.90;;
38465;SDS011;24244;51.950;5.902;2023-03-23T15:08:14;2.03;;;0.70;;
38465;SDS011;24244;51.950;5.902;2023-03-23T15:10:50;1.88;;;0.50;;
38465;SDS011;24244;51.950;5.902;2023-03-23T15:13:18;3.22;;;0.80;;
38465;SDS011;24244;51.950;5.902;2023-03-23T15:15:46;2.38;;;0.45;;
38465;SDS011;24244;51.950;5.902;2023-03-23T15:18:19;5.25;;;0.70;;
38465;SDS011;24244;51.950;5.902;2023-03-23T15:20:54;4.32;;;0.60;;
38465;SDS011;24244;51.950;5.902;2023-03-23T15:23:22;3.13;;;1.00;;
38465;SDS011;24244;51.950;5.902;2023-03-23T15:25:53;2.78;;;0.68;;
38465;SDS011;24244;51.950;5.902;2023-03-23T15:28:20;3.63;;;0.57;;
38465;SDS011;24244;51.950;5.902;2023-03-23T15:30:49;3.55;;;1.02;;
38465;SDS011;24244;51.950;5.902;2023-03-23T15:33:17;2.45;;;0.73;;
38465;SDS011;24244;51.950;5.902;2023-03-23T15:35:47;2.92;;;0.93;;
38465;SDS011;24244;51.950;5.902;2023-03-23T15:38:16;1.83;;;0.70;;
38465;SDS011;24244;51.950;5.902;2023-03-23T15:40:48;1.23;;;0.35;;
38465;SDS011;24244;51.950;5.902;2023-03-23T15:43:18;2.20;;;0.98;;
38465;SDS011;24244;51.950;5.902;2023-03-23T15:49:07;3.22;;;0.77;;
38465;SDS011;24244;51.950;5.902;2023-03-23T15:51:36;2.60;;;1.10;;
38465;SDS011;24244;51.950;5.902;2023-03-23T15:54:45;4.93;;;1.02;;